Time;durP1;ratioP1;P1;durP2;ratioP2;P2;SDS_P1;SDS_P2;PMS_P1;PMS_P2;Temp;Humidity;BMP_temperature;BMP_pressure;BME280_temperature;BME280_humidity;BME280_pressure;Samples;Min_cycle;Max_cycle;Signal;HPM_P1;HPM_P2
2021/06/23 00:00:40;;;;;;;6.00;4.67;;;17.70;99.90;;;;;;5087734;28;20449;-83
2021/06/23 00:03:08;;;;;;;7.00;5.07;;;17.70;99.90;;;;;;5088351;28;20452;-84
2021/06/23 00:05:35;;;;;;;7.43;5.63;;;17.60;99.90;;;;;;5087631;28;20429;-84
2021/06/23 00:08:02;;;;;;;5.37;4.53;;;17.60;99.90;;;;;;5087312;28;20495;-83
2021/06/23 00:10:28;;;;;;;5.50;5.00;;;17.50;99.90;;;;;;5087559;28;20453;-84
2021/06/23 00:13:03;;;;;;;7.20;5.17;;;17.50;99.90;;;;;;5087335;28;20471;-83
2021/06/23 00:15:30;;;;;;;7.40;5.33;;;17.60;99.90;;;;;;5087759;28;20511;-83
2021/06/23 00:17:57;;;;;;;7.50;6.10;;;17.50;99.90;;;;;;5088280;28;20500;-83
2021/06/23 00:20:24;;;;;;;9.17;4.83;;;17.40;99.90;;;;;;5094811;28;20447;-82
2021/06/23 00:22:51;;;;;;;6.40;5.50;;;17.40;99.90;;;;;;5097948;28;20475;-83
2021/06/23 00:25:18;;;;;;;6.97;5.10;;;17.20;99.90;;;;;;5096632;28;20417;-81
2021/06/23 00:27:44;;;;;;;5.40;4.90;;;17.50;99.90;;;;;;5096075;28;20461;-82
2021/06/23 00:30:14;;;;;;;6.20;5.60;;;17.40;99.90;;;;;;5094788;28;20437;-83
2021/06/23 00:32:42;;;;;;;5.30;4.70;;;17.40;99.90;;;;;;5094816;28;20440;-82
2021/06/23 00:35:10;;;;;;;8.50;5.33;;;17.40;99.90;;;;;;5094995;28;20485;-83
2021/06/23 00:37:37;;;;;;;6.63;5.93;;;17.50;99.90;;;;;;5095294;28;20469;-83
2021/06/23 00:40:04;;;;;;;6.00;5.40;;;17.40;99.90;;;;;;5094974;28;20415;-82
2021/06/23 00:42:32;;;;;;;9.50;6.17;;;17.40;99.90;;;;;;5094373;28;20428;-82
2021/06/23 00:44:59;;;;;;;11.93;6.73;;;17.30;99.90;;;;;;5093126;28;20437;-83
2021/06/23 00:47:27;;;;;;;7.47;6.00;;;17.40;99.90;;;;;;5092599;28;20469;-83
2021/06/23 00:49:54;;;;;;;7.73;6.93;;;17.50;99.90;;;;;;5094602;28;20532;-82
2021/06/23 00:52:21;;;;;;;6.47;5.97;;;17.70;99.90;;;;;;5094418;28;20498;-83
2021/06/23 00:54:49;;;;;;;10.10;5.97;;;17.50;99.90;;;;;;5093796;28;20503;-83
2021/06/23 00:57:17;;;;;;;9.63;6.30;;;17.40;99.90;;;;;;5093794;28;20460;-83
2021/06/23 00:59:45;;;;;;;8.07;6.17;;;17.50;99.90;;;;;;5094222;28;20437;-83
2021/06/23 01:02:13;;;;;;;6.67;5.70;;;17.50;99.90;;;;;;5094431;28;20470;-83
2021/06/23 01:04:41;;;;;;;7.60;5.83;;;17.50;99.90;;;;;;5094626;28;20453;-82
2021/06/23 01:07:08;;;;;;;7.37;6.27;;;17.50;99.90;;;;;;5092212;28;20483;-83
2021/06/23 01:09:34;;;;;;;8.03;6.33;;;17.60;99.90;;;;;;5090943;28;20449;-82
2021/06/23 01:12:15;;;;;;;8.13;6.70;;;17.50;99.90;;;;;;5093710;28;20463;-83
2021/06/23 01:14:43;;;;;;;9.67;6.30;;;17.50;99.90;;;;;;5094200;28;20504;-82
2021/06/23 01:17:10;;;;;;;9.73;5.90;;;17.60;99.90;;;;;;5093945;28;20475;-83
2021/06/23 01:19:40;;;;;;;6.57;5.87;;;17.60;99.90;;;;;;5094107;28;20433;-82
2021/06/23 01:22:08;;;;;;;9.97;6.30;;;17.50;99.90;;;;;;5095301;28;20466;-82
2021/06/23 01:24:35;;;;;;;6.50;5.90;;;17.50;99.90;;;;;;5094533;28;20444;-82
2021/06/23 01:27:01;;;;;;;6.80;5.73;;;17.50;99.90;;;;;;5093062;28;20468;-83
2021/06/23 01:29:29;;;;;;;7.53;6.83;;;17.50;99.90;;;;;;5092348;28;20444;-83
2021/06/23 01:31:56;;;;;;;8.00;7.20;;;17.40;99.90;;;;;;5095452;28;20445;-81
2021/06/23 01:34:23;;;;;;;15.87;9.10;;;17.40;99.90;;;;;;5094348;28;20499;-82
2021/06/23 01:36:49;;;;;;;10.10;7.73;;;17.40;99.90;;;;;;5096233;28;20445;-82
2021/06/23 01:39:17;;;;;;;8.53;6.53;;;17.40;99.90;;;;;;5099214;28;20444;-81
2021/06/23 01:41:44;;;;;;;8.50;6.63;;;17.50;99.90;;;;;;5097276;28;20445;-84
2021/06/23 01:44:10;;;;;;;8.97;5.73;;;17.50;99.90;;;;;;5097657;28;20451;-82
2021/06/23 01:46:37;;;;;;;8.87;5.73;;;17.40;99.90;;;;;;5098436;28;20460;-84
2021/06/23 01:49:04;;;;;;;10.00;6.70;;;17.20;99.90;;;;;;5098599;28;20440;-82
2021/06/23 01:51:31;;;;;;;21.57;10.03;;;17.10;99.90;;;;;;5098250;28;20467;-81
2021/06/23 01:53:57;;;;;;;9.00;7.43;;;17.10;99.90;;;;;;5098156;28;20474;-82
2021/06/23 01:56:28;;;;;;;7.60;7.00;;;17.20;99.90;;;;;;5098362;28;20480;-81
2021/06/23 01:58:55;;;;;;;7.07;6.37;;;17.10;99.90;;;;;;5096240;28;20436;-81
2021/06/23 02:01:23;;;;;;;9.80;7.43;;;17.00;99.90;;;;;;5099169;28;20403;-82
2021/06/23 02:04:07;;;;;;;7.57;6.77;;;17.10;99.90;;;;;;5099329;28;20448;-82
2021/06/23 02:06:49;;;;;;;8.27;7.43;;;17.20;99.90;;;;;;5100736;28;20484;-81
2021/06/23 02:09:32;;;;;;;8.67;7.50;;;17.20;99.90;;;;;;5096930;28;20455;-81
2021/06/23 02:12:14;;;;;;;8.20;7.40;;;17.20;99.90;;;;;;5097539;28;20490;-82
2021/06/23 02:14:42;;;;;;;7.87;7.07;;;17.10;99.90;;;;;;5093382;28;20464;-81
2021/06/23 02:17:11;;;;;;;8.07;7.33;;;17.00;99.90;;;;;;5092473;22;20489;-80
2021/06/23 02:19:41;;;;;;;9.17;7.23;;;17.10;99.90;;;;;;5038774;28;20485;-79
2021/06/23 02:22:13;;;;;;;7.30;6.57;;;17.00;99.90;;;;;;5039328;28;20438;-79
2021/06/23 02:24:40;;;;;;;8.43;6.90;;;16.90;99.90;;;;;;5039441;28;20443;-80
2021/06/23 02:27:09;;;;;;;7.63;6.80;;;16.90;99.90;;;;;;5038326;28;20517;-79
2021/06/23 02:29:36;;;;;;;6.53;5.93;;;16.90;99.90;;;;;;5038521;28;20450;-80
2021/06/23 02:32:04;;;;;;;8.10;6.33;;;16.90;99.90;;;;;;5038703;28;20429;-79
2021/06/23 02:34:32;;;;;;;9.60;6.37;;;17.00;99.90;;;;;;5038654;28;20446;-80
2021/06/23 02:36:59;;;;;;;8.80;6.20;;;17.00;99.90;;;;;;5038861;28;20484;-79
2021/06/23 02:39:26;;;;;;;7.43;6.40;;;17.00;99.90;;;;;;5040972;28;20480;-79
2021/06/23 02:41:53;;;;;;;7.50;6.80;;;17.10;99.90;;;;;;5047712;28;20442;-79
2021/06/23 02:44:21;;;;;;;7.17;5.87;;;17.10;99.90;;;;;;5044590;28;20446;-78
2021/06/23 02:46:48;;;;;;;6.73;6.13;;;17.00;99.90;;;;;;5041071;28;20466;-78
2021/06/23 02:49:15;;;;;;;8.07;5.90;;;17.00;99.90;;;;;;5042066;28;20446;-78
2021/06/23 02:51:42;;;;;;;8.60;6.40;;;17.00;99.90;;;;;;5041962;28;20497;-78
2021/06/23 02:54:09;;;;;;;9.20;6.10;;;17.10;99.90;;;;;;5042126;28;20454;-79
2021/06/23 02:56:36;;;;;;;14.03;6.90;;;17.10;99.90;;;;;;5041974;28;20516;-78
2021/06/23 02:59:03;;;;;;;6.10;5.60;;;17.00;99.90;;;;;;5044980;28;20453;-80
2021/06/23 03:01:31;;;;;;;11.60;7.87;;;17.10;99.90;;;;;;5053687;28;20449;-80
2021/06/23 03:03:58;;;;;;;18.57;15.20;;;17.30;99.90;;;;;;5054651;28;20455;-79
2021/06/23 03:06:25;;;;;;;7.07;5.90;;;17.60;99.90;;;;;;5046365;28;20473;-78
2021/06/23 03:08:52;;;;;;;6.40;5.90;;;17.30;99.90;;;;;;5040746;28;21015;-78
2021/06/23 03:11:18;;;;;;;6.27;5.60;;;17.20;99.90;;;;;;5041232;28;20450;-78
2021/06/23 03:13:45;;;;;;;6.97;6.10;;;17.10;99.90;;;;;;5041754;28;20882;-78
2021/06/23 03:16:11;;;;;;;7.40;6.10;;;17.10;99.90;;;;;;5040845;28;20485;-77
2021/06/23 03:18:39;;;;;;;7.03;5.43;;;17.10;99.90;;;;;;5043029;28;20499;-79
2021/06/23 03:21:07;;;;;;;7.80;5.93;;;17.20;99.90;;;;;;5048112;28;20549;-78
2021/06/23 03:23:34;;;;;;;6.90;6.37;;;17.20;99.90;;;;;;5046919;28;20446;-79
2021/06/23 03:26:01;;;;;;;6.67;5.97;;;17.20;99.90;;;;;;5045911;28;20442;-79
2021/06/23 03:28:28;;;;;;;13.87;9.07;;;17.20;99.90;;;;;;5047206;28;20491;-78
2021/06/23 03:30:55;;;;;;;9.70;8.33;;;17.30;99.90;;;;;;5047165;28;20493;-78
2021/06/23 03:33:21;;;;;;;6.47;5.80;;;17.40;99.90;;;;;;5047461;28;20439;-79
2021/06/23 03:35:49;;;;;;;6.10;5.30;;;17.40;99.90;;;;;;5048461;28;20486;-79
2021/06/23 03:38:16;;;;;;;10.67;5.90;;;17.40;99.90;;;;;;5043729;28;21019;-79
2021/06/23 03:40:42;;;;;;;12.53;6.27;;;17.40;99.90;;;;;;5036327;28;20496;-80
2021/06/23 03:43:09;;;;;;;10.63;7.67;;;17.40;99.90;;;;;;5035648;28;20478;-79
2021/06/23 03:45:36;;;;;;;8.53;6.07;;;17.40;99.90;;;;;;5035642;28;21006;-79
2021/06/23 03:48:03;;;;;;;8.23;7.17;;;17.40;99.90;;;;;;5039600;28;20462;-79
2021/06/23 03:50:31;;;;;;;12.60;9.63;;;17.40;99.90;;;;;;5040945;28;20482;-80
2021/06/23 03:52:59;;;;;;;8.00;7.13;;;17.50;99.90;;;;;;5036434;28;20501;-79
2021/06/23 03:55:29;;;;;;;10.03;7.00;;;17.40;99.90;;;;;;5036648;28;20525;-80
2021/06/23 03:57:57;;;;;;;9.80;5.97;;;17.40;99.90;;;;;;5035492;28;20495;-80
2021/06/23 04:00:26;;;;;;;6.97;6.27;;;17.30;99.90;;;;;;5053830;28;20447;-80
2021/06/23 04:02:52;;;;;;;11.10;7.50;;;17.20;99.90;;;;;;5056548;28;20446;-80
2021/06/23 04:05:19;;;;;;;7.27;6.57;;;17.20;99.90;;;;;;5038427;28;20442;-81
2021/06/23 04:07:46;;;;;;;7.77;6.70;;;17.10;99.90;;;;;;5037548;28;20490;-80
2021/06/23 04:10:15;;;;;;;8.10;7.03;;;17.10;99.90;;;;;;5036836;28;20450;-80
2021/06/23 04:12:42;;;;;;;37.00;24.03;;;17.10;99.90;;;;;;5036509;28;20473;-80
2021/06/23 04:15:14;;;;;;;10.90;7.50;;;17.20;99.90;;;;;;5036810;28;20483;-80
2021/06/23 04:17:41;;;;;;;24.87;17.27;;;17.30;99.90;;;;;;5036254;28;20827;-79
2021/06/23 04:20:09;;;;;;;9.47;7.97;;;17.30;99.90;;;;;;5036927;28;20861;-80
2021/06/23 04:22:35;;;;;;;7.67;6.97;;;17.40;99.90;;;;;;5037084;28;20442;-81
2021/06/23 04:25:02;;;;;;;9.60;6.37;;;17.40;99.90;;;;;;5035973;28;20868;-79
2021/06/23 04:27:30;;;;;;;10.40;6.13;;;17.50;99.90;;;;;;5036390;28;20524;-79
2021/06/23 04:29:57;;;;;;;11.23;7.40;;;17.50;99.90;;;;;;5036162;28;20500;-78
2021/06/23 04:32:23;;;;;;;7.60;6.90;;;17.50;99.90;;;;;;5035876;28;20490;-79
2021/06/23 04:34:50;;;;;;;7.30;6.60;;;17.50;99.90;;;;;;5035873;28;20865;-79
2021/06/23 04:37:16;;;;;;;8.03;6.67;;;17.60;99.90;;;;;;5035707;28;21035;-79
2021/06/23 04:39:43;;;;;;;9.47;6.73;;;17.60;99.90;;;;;;5036131;28;20462;-79
2021/06/23 04:42:10;;;;;;;9.40;6.80;;;17.60;99.90;;;;;;5036166;28;20446;-78
2021/06/23 04:44:38;;;;;;;6.20;5.60;;;17.60;99.90;;;;;;5037262;28;20512;-78
2021/06/23 04:47:05;;;;;;;9.90;8.60;;;17.60;99.90;;;;;;5037994;28;20468;-78
2021/06/23 04:49:31;;;;;;;7.17;6.47;;;17.70;99.90;;;;;;5038065;28;20487;-78
2021/06/23 04:51:58;;;;;;;10.43;7.30;;;18.10;99.90;;;;;;5037797;28;20508;-78
2021/06/23 04:54:24;;;;;;;9.60;6.97;;;18.20;99.90;;;;;;5037155;28;20476;-79
2021/06/23 04:56:51;;;;;;;9.77;7.10;;;18.10;99.90;;;;;;5035966;28;20490;-78
2021/06/23 04:59:17;;;;;;;7.97;5.97;;;18.10;99.90;;;;;;5038895;28;20448;-79
2021/06/23 05:01:45;;;;;;;7.13;6.43;;;18.10;99.90;;;;;;5040411;28;20496;-79
2021/06/23 05:04:12;;;;;;;7.17;6.30;;;18.10;99.90;;;;;;5037869;28;20529;-79
2021/06/23 05:06:38;;;;;;;7.87;6.83;;;18.20;99.90;;;;;;5038864;28;20466;-80
2021/06/23 05:09:06;;;;;;;6.97;5.33;;;18.20;99.90;;;;;;5039154;28;20442;-80
2021/06/23 05:11:33;;;;;;;8.87;7.10;;;18.30;99.90;;;;;;5039683;28;20457;-80
2021/06/23 05:14:00;;;;;;;7.67;6.87;;;18.50;99.90;;;;;;5041272;28;20448;-80
2021/06/23 05:16:30;;;;;;;8.37;6.33;;;18.70;99.90;;;;;;5043750;28;20573;-79
2021/06/23 05:18:59;;;;;;;11.00;6.27;;;18.80;99.90;;;;;;5039455;28;20467;-80
2021/06/23 05:21:26;;;;;;;11.10;6.47;;;19.00;99.90;;;;;;5039288;28;20863;-80
2021/06/23 05:23:52;;;;;;;18.00;6.97;;;19.00;99.90;;;;;;5039039;28;20612;-79
2021/06/23 05:26:19;;;;;;;10.43;6.10;;;18.90;99.90;;;;;;5037882;28;20444;-82
2021/06/23 05:28:46;;;;;;;8.63;6.20;;;18.80;99.90;;;;;;5036659;28;20525;-79
2021/06/23 05:31:13;;;;;;;11.77;7.17;;;18.80;99.90;;;;;;5036405;28;20501;-79
2021/06/23 05:33:39;;;;;;;11.50;7.07;;;18.90;99.90;;;;;;5036184;28;20449;-79
2021/06/23 05:36:07;;;;;;;6.20;5.67;;;18.90;99.90;;;;;;5035116;28;20521;-79
2021/06/23 05:38:34;;;;;;;9.57;6.90;;;18.80;99.90;;;;;;5036930;28;20475;-80
2021/06/23 05:41:01;;;;;;;12.53;7.60;;;18.70;99.90;;;;;;5040171;28;20452;-78
2021/06/23 05:43:27;;;;;;;9.13;6.70;;;18.70;99.90;;;;;;5037843;28;20447;-80
2021/06/23 05:45:54;;;;;;;12.70;6.53;;;18.70;99.90;;;;;;5039170;28;20454;-80
2021/06/23 05:48:20;;;;;;;7.17;5.83;;;18.70;99.90;;;;;;5039310;28;20524;-79
2021/06/23 05:50:48;;;;;;;10.13;7.50;;;18.70;99.90;;;;;;5037417;28;20550;-81
2021/06/23 05:53:25;;;;;;;7.80;6.20;;;18.60;99.90;;;;;;5039088;28;20448;-80
2021/06/23 05:55:54;;;;;;;10.93;7.50;;;18.60;99.90;;;;;;5039272;28;20555;-80
2021/06/23 05:58:21;;;;;;;8.50;6.50;;;18.70;99.90;;;;;;5040134;28;20473;-81
2021/06/23 06:00:48;;;;;;;12.23;6.77;;;18.80;99.90;;;;;;5037577;28;20466;-79
2021/06/23 06:03:15;;;;;;;8.73;5.90;;;19.00;99.90;;;;;;5040237;28;20461;-80
2021/06/23 06:05:41;;;;;;;7.00;6.30;;;19.00;99.90;;;;;;5039853;28;20446;-79
2021/06/23 06:08:08;;;;;;;10.67;6.90;;;18.90;99.90;;;;;;5037570;28;20469;-79
2021/06/23 06:10:36;;;;;;;9.80;6.57;;;18.90;99.90;;;;;;5036489;28;20453;-80
2021/06/23 06:13:04;;;;;;;10.40;6.83;;;18.80;99.90;;;;;;5035825;28;20480;-79
2021/06/23 06:15:31;;;;;;;10.20;7.47;;;18.80;99.90;;;;;;5036195;28;20872;-79
2021/06/23 06:18:00;;;;;;;13.00;5.90;;;18.70;99.90;;;;;;5034901;28;20479;-79
2021/06/23 06:20:27;;;;;;;7.70;6.90;;;18.60;99.90;;;;;;5034058;28;20966;-79
2021/06/23 06:22:54;;;;;;;10.70;7.13;;;18.70;99.90;;;;;;5032652;28;20456;-79
2021/06/23 06:25:20;;;;;;;10.37;6.80;;;18.70;99.90;;;;;;5035925;28;20456;-79
2021/06/23 06:27:48;;;;;;;11.20;6.20;;;18.90;99.90;;;;;;5036457;28;20468;-79
2021/06/23 06:30:16;;;;;;;9.87;6.30;;;19.00;99.90;;;;;;5037285;28;20436;-79
2021/06/23 06:32:42;;;;;;;9.50;6.37;;;18.60;99.90;;;;;;5037497;28;20502;-79
2021/06/23 06:35:10;;;;;;;9.63;6.23;;;18.80;99.90;;;;;;5037923;28;20522;-78
2021/06/23 06:37:37;;;;;;;10.93;5.93;;;18.90;99.90;;;;;;5047827;28;20491;-79
2021/06/23 06:40:04;;;;;;;7.23;6.00;;;19.10;99.90;;;;;;5049140;28;20482;-79
2021/06/23 06:42:30;;;;;;;7.70;5.30;;;19.00;99.90;;;;;;5048770;28;20456;-79
2021/06/23 06:44:58;;;;;;;9.70;6.23;;;19.10;99.90;;;;;;5048444;28;20499;-79
2021/06/23 06:47:25;;;;;;;12.37;6.10;;;19.20;99.90;;;;;;5042814;28;20617;-79
2021/06/23 06:49:51;;;;;;;7.57;5.73;;;19.10;99.90;;;;;;5039490;28;20496;-79
2021/06/23 06:52:18;;;;;;;8.00;6.20;;;19.10;99.90;;;;;;5038430;28;20449;-79
2021/06/23 06:54:45;;;;;;;7.60;6.37;;;19.40;99.90;;;;;;5037276;28;20952;-79
2021/06/23 06:57:12;;;;;;;8.83;5.87;;;19.50;99.90;;;;;;5048483;28;20523;-80
2021/06/23 06:59:38;;;;;;;10.30;5.77;;;19.40;99.90;;;;;;5038678;28;20499;-80
2021/06/23 07:02:07;;;;;;;9.23;6.93;;;19.30;99.90;;;;;;5038500;28;20474;-80
2021/06/23 07:04:34;;;;;;;10.13;6.23;;;19.50;99.90;;;;;;5041036;28;20975;-80
2021/06/23 07:07:00;;;;;;;7.63;5.50;;;19.30;99.90;;;;;;5043013;28;20462;-80
2021/06/23 07:09:27;;;;;;;6.63;5.70;;;19.40;99.90;;;;;;5040527;28;20453;-80
2021/06/23 07:11:53;;;;;;;7.13;6.33;;;19.60;99.90;;;;;;5040022;28;20426;-78
2021/06/23 07:14:21;;;;;;;11.57;6.13;;;19.50;99.90;;;;;;5056206;28;20448;-78
2021/06/23 07:16:48;;;;;;;16.60;6.17;;;19.50;99.90;;;;;;5057677;28;20517;-79
2021/06/23 07:19:16;;;;;;;8.30;5.03;;;19.50;99.90;;;;;;5057071;28;20427;-79
2021/06/23 07:21:43;;;;;;;8.87;5.70;;;19.70;99.90;;;;;;5055114;28;20451;-79
2021/06/23 07:24:11;;;;;;;9.60;6.07;;;19.90;99.90;;;;;;5048849;28;20469;-79
2021/06/23 07:26:38;;;;;;;11.40;5.57;;;20.20;99.90;;;;;;5045097;28;20505;-79
2021/06/23 07:29:06;;;;;;;9.03;6.23;;;20.00;99.90;;;;;;5040149;28;20443;-79
2021/06/23 07:31:41;;;;;;;8.17;6.80;;;19.70;99.90;;;;;;5038946;28;20451;-79
2021/06/23 07:34:33;;;;;;;7.03;5.53;;;20.10;99.90;;;;;;5036622;28;20429;-79
2021/06/23 07:37:03;;;;;;;8.17;4.93;;;20.10;99.90;;;;;;5037592;28;20490;-79
2021/06/23 07:39:29;;;;;;;9.30;5.73;;;20.00;99.90;;;;;;5037454;28;20543;-78
2021/06/23 07:41:56;;;;;;;8.57;5.60;;;20.20;99.90;;;;;;5040358;28;20496;-77
2021/06/23 07:44:27;;;;;;;9.80;5.17;;;20.00;99.90;;;;;;5038871;28;20892;-77
2021/06/23 07:46:56;;;;;;;4.90;4.40;;;20.20;99.90;;;;;;5036490;28;20505;-77
2021/06/23 07:49:24;;;;;;;8.50;6.30;;;20.20;99.90;;;;;;5038675;28;20531;-77
2021/06/23 07:51:57;;;;;;;6.77;4.63;;;;;;;;;;5041496;28;20833;-77
2021/06/23 07:54:38;;;;;;;13.13;4.87;;;20.40;99.90;;;;;;5043078;28;20442;-77
2021/06/23 08:08:13;;;;;;;11.60;6.00;;;20.10;99.90;;;;;;5034738;28;20452;-77
2021/06/23 08:10:44;;;;;;;10.30;5.00;;;20.00;99.90;;;;;;5033889;28;20488;-77
2021/06/23 08:13:13;;;;;;;7.70;5.50;;;20.00;99.90;;;;;;5035022;28;20787;-77
2021/06/23 08:15:41;;;;;;;6.70;4.93;;;20.10;99.90;;;;;;5034710;28;20480;-77
2021/06/23 08:18:08;;;;;;;9.80;5.67;;;20.00;99.90;;;;;;5086768;22;20491;-82
2021/06/23 08:20:36;;;;;;;11.43;5.53;;;;;;;;;;5060012;28;20440;-82
2021/06/23 08:23:03;;;;;;;9.33;5.57;;;20.20;99.90;;;;;;5060230;28;20461;-82
2021/06/23 08:25:31;;;;;;;6.33;5.03;;;20.20;99.90;;;;;;5060249;28;20460;-82
2021/06/23 08:27:59;;;;;;;9.63;4.50;;;20.10;99.90;;;;;;5060702;28;20468;-82
2021/06/23 08:30:26;;;;;;;7.33;4.67;;;20.40;99.90;;;;;;5061876;28;20494;-83
2021/06/23 08:32:55;;;;;;;8.97;4.90;;;20.40;99.90;;;;;;5069817;28;20441;-81
2021/06/23 08:35:21;;;;;;;6.17;5.37;;;20.50;99.90;;;;;;5072205;28;20477;-79
2021/06/23 08:37:49;;;;;;;11.37;5.63;;;20.40;99.90;;;;;;5074959;28;20520;-80
2021/06/23 08:40:17;;;;;;;5.80;4.70;;;20.10;99.90;;;;;;5072333;28;20503;-83
2021/06/23 08:42:44;;;;;;;11.90;5.90;;;20.40;99.90;;;;;;5062896;28;20456;-79
2021/06/23 08:45:13;;;;;;;8.13;5.00;;;20.20;99.90;;;;;;5064812;28;20442;-83
2021/06/23 08:47:41;;;;;;;6.40;5.33;;;20.10;99.90;;;;;;5063598;28;20521;-82
2021/06/23 08:50:09;;;;;;;8.73;5.53;;;20.10;99.90;;;;;;5062144;28;20454;-82
2021/06/23 08:52:36;;;;;;;7.77;5.20;;;20.00;99.90;;;;;;5060808;28;20449;-82
2021/06/23 08:55:04;;;;;;;8.40;5.30;;;20.20;99.90;;;;;;5064296;28;20456;-82
2021/06/23 08:57:33;;;;;;;6.60;4.30;;;20.30;99.90;;;;;;5069658;28;20468;-82
2021/06/23 09:00:00;;;;;;;9.07;5.60;;;20.60;99.90;;;;;;5070803;28;20451;-83
2021/06/23 09:02:30;;;;;;;7.10;5.37;;;20.60;99.90;;;;;;5066224;28;20428;-83
2021/06/23 09:04:58;;;;;;;12.13;5.50;;;20.50;99.90;;;;;;5061309;28;20477;-81
2021/06/23 09:07:42;;;;;;;7.27;4.37;;;20.40;99.90;;;;;;5050358;28;20442;-83
2021/06/23 09:10:34;;;;;;;10.33;4.70;;;20.40;99.90;;;;;;5054594;28;20453;-84
2021/06/23 09:13:18;;;;;;;6.10;4.33;;;20.50;99.90;;;;;;5040893;28;20469;-83
2021/06/23 09:15:47;;;;;;;9.03;4.80;;;20.30;99.90;;;;;;5045629;28;20456;-80
2021/06/23 09:18:16;;;;;;;9.60;4.43;;;20.20;99.90;;;;;;5051172;28;20475;-81
2021/06/23 09:20:43;;;;;;;6.40;4.37;;;20.20;99.90;;;;;;5053979;28;20443;-81
2021/06/23 09:23:13;;;;;;;5.30;4.07;;;20.30;99.90;;;;;;5051972;28;20492;-81
2021/06/23 09:25:45;;;;;;;6.90;4.73;;;20.30;99.90;;;;;;5043361;28;20953;-83
2021/06/23 09:28:16;;;;;;;6.60;4.13;;;20.50;99.90;;;;;;5043649;28;20494;-82
2021/06/23 09:30:44;;;;;;;13.80;5.00;;;20.50;99.90;;;;;;5042089;28;20442;-83
2021/06/23 09:33:18;;;;;;;7.87;5.00;;;20.60;99.90;;;;;;5041791;28;20933;-83
2021/06/23 09:35:58;;;;;;;7.47;5.00;;;19.80;99.90;;;;;;5045121;28;20431;-84
2021/06/23 09:38:43;;;;;;;4.80;4.07;;;20.80;99.90;;;;;;5056594;28;20497;-82
2021/06/23 09:41:23;;;;;;;8.67;4.83;;;21.20;99.90;;;;;;5055471;28;20414;-81
2021/06/23 09:43:54;;;;;;;12.80;4.70;;;21.30;99.90;;;;;;5054747;28;20439;-82
2021/06/23 09:46:24;;;;;;;13.70;6.30;;;21.20;99.90;;;;;;5054031;28;20427;-82
2021/06/23 09:49:04;;;;;;;8.17;5.60;;;21.00;99.90;;;;;;5044338;28;20463;-82
2021/06/23 09:51:39;;;;;;;7.47;4.87;;;21.00;99.90;;;;;;5049866;28;20426;-80
2021/06/23 09:54:06;;;;;;;5.90;3.83;;;21.00;99.90;;;;;;5050965;28;20951;-80
2021/06/23 09:56:45;;;;;;;5.03;4.53;;;21.00;99.90;;;;;;5041977;28;20458;-81
2021/06/23 09:59:25;;;;;;;5.40;4.83;;;21.00;99.90;;;;;;5045815;28;20438;-81
2021/06/23 10:01:52;;;;;;;8.20;6.53;;;21.00;99.90;;;;;;5044579;28;20555;-82
2021/06/23 10:04:20;;;;;;;8.57;5.80;;;21.00;99.90;;;;;;5044534;28;20446;-83
2021/06/23 10:06:47;;;;;;;4.30;3.90;;;21.00;99.90;;;;;;5046295;28;20564;-81
2021/06/23 10:09:22;;;;;;;9.83;5.10;;;21.10;99.90;;;;;;5044974;28;20466;-81
2021/06/23 10:11:51;;;;;;;6.10;4.40;;;20.90;99.90;;;;;;5044319;28;20484;-80
2021/06/23 10:14:19;;;;;;;6.47;4.57;;;21.00;99.90;;;;;;5042388;28;20511;-81
2021/06/23 10:16:48;;;;;;;5.30;4.40;;;21.00;99.90;;;;;;5043006;28;20481;-82
2021/06/23 10:19:20;;;;;;;5.57;4.30;;;21.10;99.90;;;;;;5043506;28;20485;-81
2021/06/23 10:21:47;;;;;;;8.23;5.13;;;21.20;99.90;;;;;;5042047;28;20451;-82
2021/06/23 10:24:16;;;;;;;5.37;4.53;;;21.40;99.90;;;;;;5043456;28;20454;-82
2021/06/23 10:26:48;;;;;;;5.90;4.77;;;21.00;99.90;;;;;;5043555;28;20470;-82
2021/06/23 10:29:17;;;;;;;7.00;4.50;;;21.10;99.90;;;;;;5044143;28;20446;-83
2021/06/23 10:31:45;;;;;;;4.63;3.97;;;21.30;99.90;;;;;;5045023;28;20500;-81
2021/06/23 10:34:12;;;;;;;5.47;4.83;;;21.20;99.90;;;;;;5047040;28;20447;-82
2021/06/23 10:36:42;;;;;;;8.73;5.13;;;21.20;99.90;;;;;;5047644;28;20442;-80
2021/06/23 10:39:09;;;;;;;6.33;4.73;;;21.10;99.90;;;;;;5047539;28;20482;-80
2021/06/23 10:41:38;;;;;;;6.10;5.30;;;20.70;99.90;;;;;;5045865;28;20443;-81
2021/06/23 10:44:20;;;;;;;9.00;4.80;;;20.70;99.90;;;;;;5047572;28;20438;-80
2021/06/23 10:46:48;;;;;;;5.80;4.87;;;20.60;99.90;;;;;;5047391;28;20469;-81
2021/06/23 10:49:18;;;;;;;6.20;5.10;;;20.70;99.90;;;;;;5048241;28;20479;-82
2021/06/23 10:51:48;;;;;;;8.47;4.60;;;20.50;99.90;;;;;;5048230;28;20439;-81
2021/06/23 10:54:36;;;;;;;4.97;4.57;;;20.50;99.90;;;;;;5052364;28;20450;-81
2021/06/23 10:57:22;;;;;;;9.33;5.20;;;20.50;99.90;;;;;;5053144;28;20453;-81
2021/06/23 10:59:49;;;;;;;5.60;5.10;;;;;;;;;;5047606;28;20921;-81
2021/06/23 11:02:16;;;;;;;6.90;4.30;;;20.50;99.90;;;;;;5050923;28;20453;-80
2021/06/23 11:05:13;;;;;;;5.73;5.13;;;20.30;99.90;;;;;;5051201;28;20518;-79
2021/06/23 11:07:44;;;;;;;8.93;5.50;;;20.60;99.90;;;;;;5051205;28;20462;-81
2021/06/23 11:10:28;;;;;;;5.77;4.77;;;20.60;99.90;;;;;;5046191;28;20435;-80
2021/06/23 11:12:58;;;;;;;7.27;4.97;;;20.60;99.90;;;;;;5047758;28;20464;-82
2021/06/23 11:15:35;;;;;;;12.00;5.07;;;20.40;99.90;;;;;;5051927;28;20438;-80
2021/06/23 11:18:17;;;;;;;9.07;5.80;;;20.30;99.90;;;;;;5053998;28;20488;-81
2021/06/23 11:20:45;;;;;;;17.70;6.50;;;20.10;99.90;;;;;;5057501;28;20438;-81
2021/06/23 11:23:47;;;;;;;12.00;6.30;;;20.20;99.90;;;;;;5051299;28;20473;-80
2021/06/23 11:26:50;;;;;;;6.97;5.00;;;20.30;99.90;;;;;;5049278;28;20441;-82
2021/06/23 11:29:39;;;;;;;8.70;6.37;;;20.30;99.90;;;;;;5050049;28;20445;-81
2021/06/23 11:32:08;;;;;;;7.47;5.77;;;20.30;99.90;;;;;;5049142;28;20869;-81
2021/06/23 11:34:58;;;;;;;7.10;5.40;;;20.50;99.90;;;;;;5046202;28;20496;-81
2021/06/23 11:37:32;;;;;;;9.43;6.40;;;20.50;99.90;;;;;;5049988;28;20490;-81
2021/06/23 11:40:30;;;;;;;7.40;5.03;;;20.20;99.90;;;;;;5047347;28;20441;-81
2021/06/23 11:42:57;;;;;;;6.37;4.80;;;20.00;99.90;;;;;;5012409;28;20421;-83
2021/06/23 11:45:24;;;;;;;11.97;6.30;;;19.90;99.90;;;;;;5049642;28;20445;-82
2021/06/23 11:47:51;;;;;;;6.33;5.30;;;19.90;99.90;;;;;;5050139;28;20529;-82
2021/06/23 11:50:17;;;;;;;8.40;5.40;;;20.00;99.90;;;;;;5049211;28;20469;-82
2021/06/23 11:52:47;;;;;;;10.23;5.80;;;20.00;99.90;;;;;;5051294;28;20450;-82
2021/06/23 11:55:23;;;;;;;7.10;5.10;;;20.10;99.90;;;;;;5056867;28;20461;-81
2021/06/23 11:57:52;;;;;;;8.17;5.23;;;20.20;99.90;;;;;;5056845;28;20481;-82
2021/06/23 12:00:20;;;;;;;16.40;8.50;;;20.30;99.90;;;;;;5057194;28;20447;-82
2021/06/23 12:02:47;;;;;;;8.27;5.23;;;20.20;99.90;;;;;;5055995;28;20470;-82
2021/06/23 12:05:14;;;;;;;8.30;5.77;;;20.20;99.90;;;;;;5050206;28;20449;-83
2021/06/23 12:07:40;;;;;;;7.10;5.50;;;20.20;99.90;;;;;;5048374;28;20496;-83
2021/06/23 12:10:08;;;;;;;8.50;5.30;;;20.20;99.90;;;;;;5048137;28;20450;-84
2021/06/23 12:12:35;;;;;;;10.83;5.47;;;20.10;99.90;;;;;;5047576;28;20448;-84
2021/06/23 12:15:06;;;;;;;6.63;5.03;;;20.20;99.90;;;;;;5048080;28;20450;-83
2021/06/23 12:17:32;;;;;;;8.43;6.03;;;20.10;99.90;;;;;;5050488;28;20492;-83
2021/06/23 12:20:01;;;;;;;6.73;6.13;;;20.10;99.90;;;;;;5049296;28;20879;-83
2021/06/23 12:22:28;;;;;;;6.07;5.10;;;20.00;99.90;;;;;;5050710;28;20877;-82
2021/06/23 12:24:55;;;;;;;10.37;6.10;;;19.90;99.90;;;;;;5049807;28;20451;-82
2021/06/23 12:27:22;;;;;;;12.13;6.10;;;19.90;99.90;;;;;;5049650;28;20466;-82
2021/06/23 12:29:48;;;;;;;10.00;5.47;;;19.80;99.90;;;;;;5049565;28;20433;-82
2021/06/23 12:32:16;;;;;;;7.17;5.70;;;19.60;99.90;;;;;;5049324;28;20480;-83
2021/06/23 12:34:43;;;;;;;9.47;6.57;;;19.30;99.90;;;;;;5051686;28;20487;-83
2021/06/23 12:37:09;;;;;;;9.97;6.80;;;19.30;99.90;;;;;;5052026;28;20503;-83
2021/06/23 12:39:36;;;;;;;12.17;7.67;;;18.70;99.90;;;;;;5051295;28;20484;-82
2021/06/23 12:42:03;;;;;;;10.50;7.50;;;19.00;99.90;;;;;;5054132;28;20446;-84
2021/06/23 12:44:30;;;;;;;10.97;8.83;;;18.60;99.90;;;;;;5050303;28;20452;-83
2021/06/23 12:46:57;;;;;;;16.07;9.23;;;17.90;99.90;;;;;;5048825;28;20476;-83
2021/06/23 12:49:25;;;;;;;10.00;7.40;;;18.60;99.90;;;;;;5048222;28;20450;-81
2021/06/23 12:51:52;;;;;;;12.27;8.63;;;18.20;99.90;;;;;;5055113;28;20459;-84
2021/06/23 12:54:19;;;;;;;12.13;8.63;;;18.10;99.90;;;;;;5050171;28;20507;-83
2021/06/23 12:56:45;;;;;;;12.50;7.93;;;18.00;99.90;;;;;;5053660;28;20438;-84
2021/06/23 12:59:12;;;;;;;10.47;8.60;;;18.20;99.90;;;;;;5055351;28;20498;-84
2021/06/23 13:01:39;;;;;;;12.70;9.13;;;18.20;99.90;;;;;;5054820;28;20442;-83
2021/06/23 13:04:05;;;;;;;11.33;8.40;;;18.20;99.90;;;;;;5044589;28;20443;-82
2021/06/23 13:06:33;;;;;;;10.80;7.63;;;18.30;99.90;;;;;;5046819;28;20482;-82